sensor_id;sensor_type;location;lat;lon;timestamp;pressure;altitude;pressure_sealevel;temperature;humidity
57763;BME280;43592;42.524;12.052;2023-05-10T00:01:05;96527.88;;;11.66;100.00
57763;BME280;43592;42.524;12.052;2023-05-10T00:03:31;96527.47;;;11.64;100.00
57763;BME280;43592;42.524;12.052;2023-05-10T00:05:56;96519.00;;;11.62;100.00
57763;BME280;43592;42.524;12.052;2023-05-10T00:08:22;96521.66;;;11.62;100.00
57763;BME280;43592;42.524;12.052;2023-05-10T00:10:48;96516.31;;;11.62;100.00
57763;BME280;43592;42.524;12.052;2023-05-10T00:13:13;96512.84;;;11.61;100.00
57763;BME280;43592;42.524;12.052;2023-05-10T00:15:39;96512.50;;;11.63;100.00
57763;BME280;43592;42.524;12.052;2023-05-10T00:18:04;96505.25;;;11.63;100.00
57763;BME280;43592;42.524;12.052;2023-05-10T00:20:30;96502.22;;;11.65;100.00
57763;BME280;43592;42.524;12.052;2023-05-10T00:22:55;96508.00;;;11.67;100.00
57763;BME280;43592;42.524;12.052;2023-05-10T00:25:20;96507.31;;;11.70;100.00
57763;BME280;43592;42.524;12.052;2023-05-10T00:27:47;96501.94;;;11.70;100.00
57763;BME280;43592;42.524;12.052;2023-05-10T00:30:13;96500.47;;;11.73;100.00
57763;BME280;43592;42.524;12.052;2023-05-10T00:32:39;96495.88;;;11.73;100.00
57763;BME280;43592;42.524;12.052;2023-05-10T00:35:04;96502.78;;;11.74;100.00
57763;BME280;43592;42.524;12.052;2023-05-10T00:37:30;96491.28;;;11.74;100.00
57763;BME280;43592;42.524;12.052;2023-05-10T00:39:55;96492.06;;;11.74;100.00
57763;BME280;43592;42.524;12.052;2023-05-10T00:42:21;96486.28;;;11.72;100.00
57763;BME280;43592;42.524;12.052;2023-05-10T00:44:47;96476.34;;;11.73;100.00
57763;BME280;43592;42.524;12.052;2023-05-10T00:47:12;96477.88;;;11.74;100.00
57763;BME280;43592;42.524;12.052;2023-05-10T00:49:38;96473.31;;;11.74;100.00
57763;BME280;43592;42.524;12.052;2023-05-10T00:52:03;96472.53;;;11.74;100.00
57763;BME280;43592;42.524;12.052;2023-05-10T00:54:29;96478.66;;;11.74;100.00
57763;BME280;43592;42.524;12.052;2023-05-10T00:56:55;96464.47;;;11.74;100.00
57763;BME280;43592;42.524;12.052;2023-05-10T00:59:22;96468.38;;;11.76;100.00
57763;BME280;43592;42.524;12.052;2023-05-10T01:01:47;96462.66;;;11.78;100.00
57763;BME280;43592;42.524;12.052;2023-05-10T01:04:13;96463.84;;;11.80;100.00
57763;BME280;43592;42.524;12.052;2023-05-10T01:06:39;96457.00;;;11.83;100.00
57763;BME280;43592;42.524;12.052;2023-05-10T01:09:05;96457.13;;;11.86;100.00
57763;BME280;43592;42.524;12.052;2023-05-10T01:11:38;96453.75;;;11.89;100.00
57763;BME280;43592;42.524;12.052;2023-05-10T01:14:04;96459.25;;;11.97;100.00
57763;BME280;43592;42.524;12.052;2023-05-10T01:16:34;96454.75;;;12.01;100.00
57763;BME280;43592;42.524;12.052;2023-05-10T01:19:01;96444.53;;;12.06;100.00
57763;BME280;43592;42.524;12.052;2023-05-10T01:21:38;96450.28;;;12.08;100.00
57763;BME280;43592;42.524;12.052;2023-05-10T01:32:00;96441.34;;;12.20;100.00
57763;BME280;43592;42.524;12.052;2023-05-10T01:34:32;96449.78;;;12.22;100.00
57763;BME280;43592;42.524;12.052;2023-05-10T01:37:06;96445.63;;;12.25;100.00
57763;BME280;43592;42.524;12.052;2023-05-10T01:42:08;96439.97;;;12.30;100.00
57763;BME280;43592;42.524;12.052;2023-05-10T01:44:37;96440.75;;;12.30;100.00
57763;BME280;43592;42.524;12.052;2023-05-10T01:47:05;96448.53;;;12.35;100.00
57763;BME280;43592;42.524;12.052;2023-05-10T01:49:34;96445.50;;;12.37;100.00
57763;BME280;43592;42.524;12.052;2023-05-10T01:52:08;96440.19;;;12.41;100.00
57763;BME280;43592;42.524;12.052;2023-05-10T01:54:35;96441.38;;;12.43;100.00
57763;BME280;43592;42.524;12.052;2023-05-10T01:57:03;96435.31;;;12.46;100.00
57763;BME280;43592;42.524;12.052;2023-05-10T01:59:31;96434.22;;;12.51;100.00
57763;BME280;43592;42.524;12.052;2023-05-10T02:02:01;96436.19;;;12.54;100.00
57763;BME280;43592;42.524;12.052;2023-05-10T02:04:28;96427.44;;;12.57;100.00
57763;BME280;43592;42.524;12.052;2023-05-10T02:06:54;96429.41;;;12.60;100.00
57763;BME280;43592;42.524;12.052;2023-05-10T02:09:20;96430.69;;;12.66;100.00
57763;BME280;43592;42.524;12.052;2023-05-10T02:11:47;96433.34;;;12.66;100.00
57763;BME280;43592;42.524;12.052;2023-05-10T02:14:13;96424.94;;;12.68;100.00
57763;BME280;43592;42.524;12.052;2023-05-10T02:16:40;96425.72;;;12.68;100.00
57763;BME280;43592;42.524;12.052;2023-05-10T02:19:06;96423.81;;;12.69;100.00
57763;BME280;43592;42.524;12.052;2023-05-10T02:21:33;96422.25;;;12.68;100.00
57763;BME280;43592;42.524;12.052;2023-05-10T02:24:00;96428.41;;;12.68;100.00
57763;BME280;43592;42.524;12.052;2023-05-10T02:26:27;96421.13;;;12.69;100.00
57763;BME280;43592;42.524;12.052;2023-05-10T02:28:54;96421.53;;;12.71;100.00
57763;BME280;43592;42.524;12.052;2023-05-10T02:31:21;96411.59;;;12.71;100.00
57763;BME280;43592;42.524;12.052;2023-05-10T02:33:47;96419.66;;;12.71;100.00
57763;BME280;43592;42.524;12.052;2023-05-10T02:36:13;96415.47;;;12.74;100.00
57763;BME280;43592;42.524;12.052;2023-05-10T02:38:39;96415.09;;;12.75;100.00
57763;BME280;43592;42.524;12.052;2023-05-10T02:41:06;96411.28;;;12.76;100.00
57763;BME280;43592;42.524;12.052;2023-05-10T02:43:33;96411.69;;;12.78;100.00
57763;BME280;43592;42.524;12.052;2023-05-10T02:46:01;96404.00;;;12.77;100.00
57763;BME280;43592;42.524;12.052;2023-05-10T02:48:27;96402.88;;;12.78;100.00
57763;BME280;43592;42.524;12.052;2023-05-10T02:50:53;96406.31;;;12.78;100.00
57763;BME280;43592;42.524;12.052;2023-05-10T02:53:23;96402.09;;;12.77;100.00
57763;BME280;43592;42.524;12.052;2023-05-10T02:55:51;96392.91;;;12.78;100.00
57763;BME280;43592;42.524;12.052;2023-05-10T02:58:17;96391.78;;;12.79;100.00
57763;BME280;43592;42.524;12.052;2023-05-10T03:00:46;96388.72;;;12.81;100.00
57763;BME280;43592;42.524;12.052;2023-05-10T03:03:12;96391.84;;;12.83;100.00
57763;BME280;43592;42.524;12.052;2023-05-10T03:05:37;96386.09;;;12.85;100.00
57763;BME280;43592;42.524;12.052;2023-05-10T03:08:03;96382.69;;;12.88;100.00
57763;BME280;43592;42.524;12.052;2023-05-10T03:10:29;96376.53;;;12.87;100.00
57763;BME280;43592;42.524;12.052;2023-05-10T03:21:11;96366.94;;;12.86;100.00
57763;BME280;43592;42.524;12.052;2023-05-10T03:23:41;96370.78;;;12.85;100.00
57763;BME280;43592;42.524;12.052;2023-05-10T03:26:08;96363.06;;;12.84;100.00
57763;BME280;43592;42.524;12.052;2023-05-10T03:28:37;96371.13;;;12.84;100.00
57763;BME280;43592;42.524;12.052;2023-05-10T03:31:04;96367.66;;;12.83;100.00
57763;BME280;43592;42.524;12.052;2023-05-10T03:33:31;96359.59;;;12.83;100.00
57763;BME280;43592;42.524;12.052;2023-05-10T03:35:57;96364.59;;;12.85;100.00
57763;BME280;43592;42.524;12.052;2023-05-10T03:38:23;96370.06;;;12.88;100.00
57763;BME280;43592;42.524;12.052;2023-05-10T03:40:48;96366.66;;;12.91;100.00
57763;BME280;43592;42.524;12.052;2023-05-10T03:43:14;96357.44;;;12.92;100.00
57763;BME280;43592;42.524;12.052;2023-05-10T03:45:42;96367.84;;;12.94;100.00
57763;BME280;43592;42.524;12.052;2023-05-10T03:48:08;96360.16;;;12.96;100.00
57763;BME280;43592;42.524;12.052;2023-05-10T03:50:33;96358.25;;;12.96;100.00
57763;BME280;43592;42.524;12.052;2023-05-10T03:52:58;96360.94;;;12.96;100.00
57763;BME280;43592;42.524;12.052;2023-05-10T03:55:24;96354.81;;;12.96;100.00
57763;BME280;43592;42.524;12.052;2023-05-10T03:57:49;96356.72;;;12.95;100.00
57763;BME280;43592;42.524;12.052;2023-05-10T04:00:15;96355.53;;;12.93;100.00
57763;BME280;43592;42.524;12.052;2023-05-10T04:02:40;96360.47;;;12.91;100.00
57763;BME280;43592;42.524;12.052;2023-05-10T04:05:06;96352.03;;;12.89;100.00
57763;BME280;43592;42.524;12.052;2023-05-10T04:07:31;96355.06;;;12.87;100.00
57763;BME280;43592;42.524;12.052;2023-05-10T04:09:56;96353.13;;;12.88;100.00
57763;BME280;43592;42.524;12.052;2023-05-10T04:12:22;96351.59;;;12.87;100.00
57763;BME280;43592;42.524;12.052;2023-05-10T04:14:47;96340.09;;;12.86;100.00
57763;BME280;43592;42.524;12.052;2023-05-10T04:17:13;96343.53;;;12.87;100.00
57763;BME280;43592;42.524;12.052;2023-05-10T04:19:38;96343.19;;;12.88;100.00
57763;BME280;43592;42.524;12.052;2023-05-10T04:22:04;96348.56;;;12.88;100.00
57763;BME280;43592;42.524;12.052;2023-05-10T04:24:29;96344.34;;;12.91;100.00
57763;BME280;43592;42.524;12.052;2023-05-10T04:26:55;96339.84;;;12.95;100.00
57763;BME280;43592;42.524;12.052;2023-05-10T04:29:20;96349.44;;;12.96;100.00
57763;BME280;43592;42.524;12.052;2023-05-10T04:31:46;96344.47;;;12.98;100.00
57763;BME280;43592;42.524;12.052;2023-05-10T04:34:11;96355.66;;;13.00;100.00
57763;BME280;43592;42.524;12.052;2023-05-10T04:36:37;96356.84;;;13.02;100.00
57763;BME280;43592;42.524;12.052;2023-05-10T04:39:02;96350.66;;;13.02;100.00
57763;BME280;43592;42.524;12.052;2023-05-10T04:41:28;96360.25;;;12.99;100.00
57763;BME280;43592;42.524;12.052;2023-05-10T04:43:53;96357.13;;;12.97;100.00
57763;BME280;43592;42.524;12.052;2023-05-10T04:46:19;96359.78;;;12.94;100.00
57763;BME280;43592;42.524;12.052;2023-05-10T04:48:44;96352.06;;;12.92;100.00
57763;BME280;43592;42.524;12.052;2023-05-10T04:51:10;96357.41;;;12.89;100.00
57763;BME280;43592;42.524;12.052;2023-05-10T04:53:35;96354.28;;;12.87;100.00
57763;BME280;43592;42.524;12.052;2023-05-10T04:56:01;96358.47;;;12.84;100.00
57763;BME280;43592;42.524;12.052;2023-05-10T04:58:27;96365.69;;;12.80;100.00
57763;BME280;43592;42.524;12.052;2023-05-10T05:00:52;96362.13;;;12.72;100.00
57763;BME280;43592;42.524;12.052;2023-05-10T05:03:18;96363.13;;;12.64;100.00
57763;BME280;43592;42.524;12.052;2023-05-10T05:05:43;96352.34;;;12.61;100.00
57763;BME280;43592;42.524;12.052;2023-05-10T05:08:09;96353.84;;;12.58;100.00
57763;BME280;43592;42.524;12.052;2023-05-10T05:10:35;96351.88;;;12.55;100.00
57763;BME280;43592;42.524;12.052;2023-05-10T05:13:00;96354.84;;;12.50;100.00
57763;BME280;43592;42.524;12.052;2023-05-10T05:15:26;96353.66;;;12.47;100.00
57763;BME280;43592;42.524;12.052;2023-05-10T05:17:51;96342.50;;;12.45;100.00
57763;BME280;43592;42.524;12.052;2023-05-10T05:20:17;96342.16;;;12.47;100.00
57763;BME280;43592;42.524;12.052;2023-05-10T05:22:44;96346.75;;;12.46;100.00
57763;BME280;43592;42.524;12.052;2023-05-10T05:25:10;96350.19;;;12.47;100.00
57763;BME280;43592;42.524;12.052;2023-05-10T05:27:36;96345.59;;;12.47;100.00
57763;BME280;43592;42.524;12.052;2023-05-10T05:30:02;96351.38;;;12.49;100.00
57763;BME280;43592;42.524;12.052;2023-05-10T05:32:28;96346.44;;;12.51;100.00
57763;BME280;43592;42.524;12.052;2023-05-10T05:34:53;96347.63;;;12.54;100.00
57763;BME280;43592;42.524;12.052;2023-05-10T05:37:19;96350.72;;;12.56;100.00
57763;BME280;43592;42.524;12.052;2023-05-10T05:39:46;96346.22;;;12.60;100.00
57763;BME280;43592;42.524;12.052;2023-05-10T05:42:12;96344.72;;;12.63;100.00
57763;BME280;43592;42.524;12.052;2023-05-10T05:44:38;96346.31;;;12.67;100.00
57763;BME280;43592;42.524;12.052;2023-05-10T05:47:04;96351.72;;;12.71;100.00
57763;BME280;43592;42.524;12.052;2023-05-10T05:49:30;96347.16;;;12.71;100.00
57763;BME280;43592;42.524;12.052;2023-05-10T05:51:59;96346.78;;;12.73;100.00
57763;BME280;43592;42.524;12.052;2023-05-10T05:54:29;96350.22;;;12.73;100.00
57763;BME280;43592;42.524;12.052;2023-05-10T05:56:55;96354.84;;;12.73;100.00
57763;BME280;43592;42.524;12.052;2023-05-10T05:59:21;96351.44;;;12.76;100.00
57763;BME280;43592;42.524;12.052;2023-05-10T06:01:47;96353.38;;;12.79;100.00
57763;BME280;43592;42.524;12.052;2023-05-10T06:04:13;96355.72;;;12.80;100.00
57763;BME280;43592;42.524;12.052;2023-05-10T06:06:39;96365.31;;;12.81;100.00
57763;BME280;43592;42.524;12.052;2023-05-10T06:09:04;96371.53;;;12.86;100.00
57763;BME280;43592;42.524;12.052;2023-05-10T06:11:30;96362.72;;;12.85;100.00
57763;BME280;43592;42.524;12.052;2023-05-10T06:13:57;96368.09;;;12.85;100.00
57763;BME280;43592;42.524;12.052;2023-05-10T06:16:23;96371.13;;;12.84;100.00
57763;BME280;43592;42.524;12.052;2023-05-10T06:18:48;96368.44;;;12.84;100.00
57763;BME280;43592;42.524;12.052;2023-05-10T06:21:14;96361.53;;;12.83;100.00
57763;BME280;43592;42.524;12.052;2023-05-10T06:23:40;96369.94;;;12.81;100.00
57763;BME280;43592;42.524;12.052;2023-05-10T06:26:05;96373.34;;;12.78;100.00
57763;BME280;43592;42.524;12.052;2023-05-10T06:28:31;96368.31;;;12.76;100.00
57763;BME280;43592;42.524;12.052;2023-05-10T06:30:58;96367.53;;;12.76;100.00
57763;BME280;43592;42.524;12.052;2023-05-10T06:33:24;96374.47;;;12.77;100.00
57763;BME280;43592;42.524;12.052;2023-05-10T06:35:49;96376.00;;;12.78;100.00
57763;BME280;43592;42.524;12.052;2023-05-10T06:38:15;96378.69;;;12.78;100.00
57763;BME280;43592;42.524;12.052;2023-05-10T06:40:41;96379.91;;;12.80;100.00
57763;BME280;43592;42.524;12.052;2023-05-10T06:43:07;96386.09;;;12.85;100.00
57763;BME280;43592;42.524;12.052;2023-05-10T06:45:33;96385.78;;;12.90;100.00
57763;BME280;43592;42.524;12.052;2023-05-10T06:47:58;96387.03;;;12.96;100.00
57763;BME280;43592;42.524;12.052;2023-05-10T06:50:24;96391.34;;;13.00;100.00
57763;BME280;43592;42.524;12.052;2023-05-10T06:52:49;96382.22;;;13.05;100.00
57763;BME280;43592;42.524;12.052;2023-05-10T06:55:15;96379.13;;;13.07;100.00
57763;BME280;43592;42.524;12.052;2023-05-10T06:57:41;96381.09;;;13.10;100.00
57763;BME280;43592;42.524;12.052;2023-05-10T07:00:06;96384.56;;;13.10;100.00
57763;BME280;43592;42.524;12.052;2023-05-10T07:02:32;96381.53;;;13.12;100.00
57763;BME280;43592;42.524;12.052;2023-05-10T07:04:58;96381.94;;;13.14;100.00
57763;BME280;43592;42.524;12.052;2023-05-10T07:07:23;96382.28;;;13.12;100.00
57763;BME280;43592;42.524;12.052;2023-05-10T07:09:49;96374.66;;;13.14;100.00
57763;BME280;43592;42.524;12.052;2023-05-10T07:12:15;96378.88;;;13.15;100.00
57763;BME280;43592;42.524;12.052;2023-05-10T07:14:40;96376.63;;;13.17;100.00
57763;BME280;43592;42.524;12.052;2023-05-10T07:17:06;96377.44;;;13.21;100.00
57763;BME280;43592;42.524;12.052;2023-05-10T07:19:31;96382.09;;;13.24;100.00
57763;BME280;43592;42.524;12.052;2023-05-10T07:21:58;96379.50;;;13.28;100.00
57763;BME280;43592;42.524;12.052;2023-05-10T07:24:23;96386.06;;;13.31;100.00
57763;BME280;43592;42.524;12.052;2023-05-10T07:26:49;96375.69;;;13.33;100.00
57763;BME280;43592;42.524;12.052;2023-05-10T07:29:15;96372.28;;;13.36;100.00
57763;BME280;43592;42.524;12.052;2023-05-10T07:31:40;96369.66;;;13.39;100.00
57763;BME280;43592;42.524;12.052;2023-05-10T07:34:08;96374.34;;;13.46;100.00
57763;BME280;43592;42.524;12.052;2023-05-10T07:36:34;96367.91;;;13.51;100.00
57763;BME280;43592;42.524;12.052;2023-05-10T07:38:59;96361.03;;;13.53;100.00
57763;BME280;43592;42.524;12.052;2023-05-10T07:41:25;96366.06;;;13.58;100.00
57763;BME280;43592;42.524;12.052;2023-05-10T07:43:51;96369.13;;;13.57;100.00
57763;BME280;43592;42.524;12.052;2023-05-10T07:46:16;96367.56;;;13.56;100.00
57763;BME280;43592;42.524;12.052;2023-05-10T07:48:42;96368.75;;;13.58;100.00
57763;BME280;43592;42.524;12.052;2023-05-10T07:51:07;96368.00;;;13.61;100.00
57763;BME280;43592;42.524;12.052;2023-05-10T07:53:34;96375.38;;;13.64;100.00
57763;BME280;43592;42.524;12.052;2023-05-10T07:56:19;96369.28;;;13.67;100.00
57763;BME280;43592;42.524;12.052;2023-05-10T07:58:45;96368.47;;;13.67;100.00
57763;BME280;43592;42.524;12.052;2023-05-10T08:01:11;96365.00;;;13.66;100.00
57763;BME280;43592;42.524;12.052;2023-05-10T08:03:36;96359.63;;;13.66;100.00
57763;BME280;43592;42.524;12.052;2023-05-10T08:06:02;96362.00;;;13.72;100.00
57763;BME280;43592;42.524;12.052;2023-05-10T08:08:27;96367.03;;;13.73;100.00
57763;BME280;43592;42.524;12.052;2023-05-10T08:10:53;96359.66;;;13.70;100.00
57763;BME280;43592;42.524;12.052;2023-05-10T08:13:18;96350.06;;;13.69;100.00
57763;BME280;43592;42.524;12.052;2023-05-10T08:15:44;96355.44;;;13.69;100.00
57763;BME280;43592;42.524;12.052;2023-05-10T08:18:10;96346.59;;;13.68;100.00
57763;BME280;43592;42.524;12.052;2023-05-10T08:20:35;96340.47;;;13.68;100.00
57763;BME280;43592;42.524;12.052;2023-05-10T08:23:01;96340.03;;;13.66;100.00
57763;BME280;43592;42.524;12.052;2023-05-10T08:25:26;96337.34;;;13.66;100.00
57763;BME280;43592;42.524;12.052;2023-05-10T08:27:52;96339.34;;;13.73;100.00
57763;BME280;43592;42.524;12.052;2023-05-10T08:30:17;96334.38;;;13.75;100.00
57763;BME280;43592;42.524;12.052;2023-05-10T08:32:43;96334.09;;;13.83;100.00
57763;BME280;43592;42.524;12.052;2023-05-10T08:35:08;96341.13;;;13.95;100.00
57763;BME280;43592;42.524;12.052;2023-05-10T08:37:33;96332.75;;;14.00;100.00
57763;BME280;43592;42.524;12.052;2023-05-10T08:39:59;96325.16;;;14.09;100.00
57763;BME280;43592;42.524;12.052;2023-05-10T08:42:25;96324.81;;;14.14;100.00
57763;BME280;43592;42.524;12.052;2023-05-10T08:44:54;96319.19;;;14.27;100.00
57763;BME280;43592;42.524;12.052;2023-05-10T08:47:21;96305.03;;;14.37;100.00
57763;BME280;43592;42.524;12.052;2023-05-10T08:49:47;96307.75;;;14.41;100.00
57763;BME280;43592;42.524;12.052;2023-05-10T08:52:16;96302.41;;;14.44;100.00
57763;BME280;43592;42.524;12.052;2023-05-10T08:54:42;96311.34;;;14.52;100.00
57763;BME280;43592;42.524;12.052;2023-05-10T08:57:09;96301.75;;;14.54;100.00
57763;BME280;43592;42.524;12.052;2023-05-10T08:59:35;96290.16;;;14.50;100.00
57763;BME280;43592;42.524;12.052;2023-05-10T09:02:03;96295.59;;;14.54;100.00
57763;BME280;43592;42.524;12.052;2023-05-10T09:04:29;96294.84;;;14.57;100.00
57763;BME280;43592;42.524;12.052;2023-05-10T09:06:56;96295.59;;;14.54;100.00
57763;BME280;43592;42.524;12.052;2023-05-10T09:09:22;96298.91;;;14.40;100.00
57763;BME280;43592;42.524;12.052;2023-05-10T09:11:48;96292.66;;;14.29;100.00
57763;BME280;43592;42.524;12.052;2023-05-10T09:14:14;96282.94;;;14.17;100.00
57763;BME280;43592;42.524;12.052;2023-05-10T09:16:40;96287.09;;;14.07;100.00
57763;BME280;43592;42.524;12.052;2023-05-10T09:19:07;96283.84;;;13.91;100.00
57763;BME280;43592;42.524;12.052;2023-05-10T09:21:35;96287.97;;;13.81;100.00
57763;BME280;43592;42.524;12.052;2023-05-10T09:24:06;96297.16;;;13.77;100.00
57763;BME280;43592;42.524;12.052;2023-05-10T09:26:32;96297.91;;;13.77;100.00
57763;BME280;43592;42.524;12.052;2023-05-10T09:28:59;96298.97;;;13.69;100.00
57763;BME280;43592;42.524;12.052;2023-05-10T09:31:25;96295.78;;;13.56;100.00
57763;BME280;43592;42.524;12.052;2023-05-10T09:34:08;96294.13;;;13.48;100.00
57763;BME280;43592;42.524;12.052;2023-05-10T09:36:33;96300.56;;;13.40;100.00
57763;BME280;43592;42.524;12.052;2023-05-10T09:38:58;96296.31;;;13.39;100.00
57763;BME280;43592;42.524;12.052;2023-05-10T09:41:25;96301.28;;;13.37;100.00
57763;BME280;43592;42.524;12.052;2023-05-10T09:43:51;96293.50;;;13.28;100.00
57763;BME280;43592;42.524;12.052;2023-05-10T09:46:21;96292.63;;;13.24;100.00
57763;BME280;43592;42.524;12.052;2023-05-10T09:48:48;96289.56;;;13.22;100.00
57763;BME280;43592;42.524;12.052;2023-05-10T09:51:20;96286.41;;;13.16;100.00
57763;BME280;43592;42.524;12.052;2023-05-10T09:53:46;96283.66;;;13.13;100.00
57763;BME280;43592;42.524;12.052;2023-05-10T09:56:11;96279.47;;;13.15;100.00
57763;BME280;43592;42.524;12.052;2023-05-10T09:58:37;96290.25;;;13.19;100.00
57763;BME280;43592;42.524;12.052;2023-05-10T10:01:10;96287.66;;;13.22;100.00
57763;BME280;43592;42.524;12.052;2023-05-10T10:03:40;96296.53;;;13.27;100.00
57763;BME280;43592;42.524;12.052;2023-05-10T10:06:07;96302.41;;;13.36;100.00
57763;BME280;43592;42.524;12.052;2023-05-10T10:08:34;96301.38;;;13.44;100.00
57763;BME280;43592;42.524;12.052;2023-05-10T10:10:59;96301.44;;;13.47;100.00
57763;BME280;43592;42.524;12.052;2023-05-10T10:13:25;96292.94;;;13.45;100.00
57763;BME280;43592;42.524;12.052;2023-05-10T10:15:51;96292.13;;;13.41;100.00
57763;BME280;43592;42.524;12.052;2023-05-10T10:18:17;96292.84;;;13.38;100.00
57763;BME280;43592;42.524;12.052;2023-05-10T10:20:44;96289.34;;;13.34;100.00
57763;BME280;43592;42.524;12.052;2023-05-10T10:23:11;96288.16;;;13.32;100.00
57763;BME280;43592;42.524;12.052;2023-05-10T10:25:36;96284.69;;;13.28;100.00
57763;BME280;43592;42.524;12.052;2023-05-10T10:28:08;96288.75;;;13.21;100.00
57763;BME280;43592;42.524;12.052;2023-05-10T10:30:41;96284.91;;;13.19;100.00
57763;BME280;43592;42.524;12.052;2023-05-10T10:35:52;96287.97;;;13.17;100.00
57763;BME280;43592;42.524;12.052;2023-05-10T10:38:18;96286.34;;;13.13;100.00
57763;BME280;43592;42.524;12.052;2023-05-10T10:40:44;96285.50;;;13.05;100.00
57763;BME280;43592;42.524;12.052;2023-05-10T10:43:25;96286.56;;;13.00;100.00
57763;BME280;43592;42.524;12.052;2023-05-10T10:48:47;96278.81;;;12.95;100.00
57763;BME280;43592;42.524;12.052;2023-05-10T10:51:13;96282.28;;;12.96;100.00
57763;BME280;43592;42.524;12.052;2023-05-10T10:53:39;96272.72;;;12.98;100.00
57763;BME280;43592;42.524;12.052;2023-05-10T10:56:09;96279.28;;;13.01;100.00
57763;BME280;43592;42.524;12.052;2023-05-10T10:58:35;96272.06;;;13.05;100.00
57763;BME280;43592;42.524;12.052;2023-05-10T11:01:18;96277.53;;;13.12;100.00
57763;BME280;43592;42.524;12.052;2023-05-10T11:06:30;96266.63;;;13.28;100.00
57763;BME280;43592;42.524;12.052;2023-05-10T11:08:57;96269.31;;;13.28;100.00
57763;BME280;43592;42.524;12.052;2023-05-10T11:11:23;96268.56;;;13.28;100.00
57763;BME280;43592;42.524;12.052;2023-05-10T11:13:49;96265.47;;;13.29;100.00
57763;BME280;43592;42.524;12.052;2023-05-10T11:16:18;96269.66;;;13.27;100.00
57763;BME280;43592;42.524;12.052;2023-05-10T11:18:54;96277.72;;;13.27;100.00
57763;BME280;43592;42.524;12.052;2023-05-10T11:21:19;96272.72;;;13.25;100.00
57763;BME280;43592;42.524;12.052;2023-05-10T11:23:49;96272.72;;;13.25;100.00
57763;BME280;43592;42.524;12.052;2023-05-10T11:26:15;96258.47;;;13.24;100.00
57763;BME280;43592;42.524;12.052;2023-05-10T11:28:42;96268.13;;;13.25;100.00
57763;BME280;43592;42.524;12.052;2023-05-10T11:31:08;96265.13;;;13.31;100.00
57763;BME280;43592;42.524;12.052;2023-05-10T11:33:43;96263.28;;;13.38;100.00
57763;BME280;43592;42.524;12.052;2023-05-10T11:36:14;96268.34;;;13.43;100.00
57763;BME280;43592;42.524;12.052;2023-05-10T11:38:40;96265.34;;;13.48;100.00
57763;BME280;43592;42.524;12.052;2023-05-10T11:41:05;96268.44;;;13.51;100.00
57763;BME280;43592;42.524;12.052;2023-05-10T11:43:33;96265.75;;;13.51;100.00
57763;BME280;43592;42.524;12.052;2023-05-10T11:45:58;96264.63;;;13.55;100.00
57763;BME280;43592;42.524;12.052;2023-05-10T11:48:24;96262.34;;;13.57;100.00
57763;BME280;43592;42.524;12.052;2023-05-10T11:50:50;96267.03;;;13.64;100.00
57763;BME280;43592;42.524;12.052;2023-05-10T11:53:15;96261.34;;;13.73;100.00
57763;BME280;43592;42.524;12.052;2023-05-10T11:55:41;96266.41;;;13.78;100.00
57763;BME280;43592;42.524;12.052;2023-05-10T11:58:06;96253.69;;;13.71;100.00
57763;BME280;43592;42.524;12.052;2023-05-10T12:00:32;96265.56;;;13.70;100.00
57763;BME280;43592;42.524;12.052;2023-05-10T12:02:57;96262.88;;;13.70;100.00
57763;BME280;43592;42.524;12.052;2023-05-10T12:05:23;96249.81;;;13.68;100.00
57763;BME280;43592;42.524;12.052;2023-05-10T12:07:50;96254.03;;;13.69;100.00
57763;BME280;43592;42.524;12.052;2023-05-10T12:10:17;96249.88;;;13.76;100.00
57763;BME280;43592;42.524;12.052;2023-05-10T12:12:51;96245.38;;;13.87;100.00
57763;BME280;43592;42.524;12.052;2023-05-10T12:15:18;96247.03;;;13.99;100.00
57763;BME280;43592;42.524;12.052;2023-05-10T12:17:48;96242.88;;;14.05;100.00
57763;BME280;43592;42.524;12.052;2023-05-10T12:22:43;96237.94;;;14.14;100.00
57763;BME280;43592;42.524;12.052;2023-05-10T12:25:09;96239.53;;;14.19;100.00
57763;BME280;43592;42.524;12.052;2023-05-10T12:27:35;96231.47;;;14.22;100.00
57763;BME280;43592;42.524;12.052;2023-05-10T12:30:01;96222.31;;;14.30;100.00
57763;BME280;43592;42.524;12.052;2023-05-10T12:32:43;96231.53;;;14.29;100.00
57763;BME280;43592;42.524;12.052;2023-05-10T12:35:09;96225.00;;;14.27;100.00
57763;BME280;43592;42.524;12.052;2023-05-10T12:37:35;96219.53;;;14.20;100.00
57763;BME280;43592;42.524;12.052;2023-05-10T12:40:08;96218.75;;;14.15;100.00
57763;BME280;43592;42.524;12.052;2023-05-10T12:42:35;96215.22;;;14.08;100.00
57763;BME280;43592;42.524;12.052;2023-05-10T12:45:01;96211.00;;;14.07;100.00
57763;BME280;43592;42.524;12.052;2023-05-10T12:47:27;96207.16;;;14.08;100.00
57763;BME280;43592;42.524;12.052;2023-05-10T12:49:53;96209.09;;;14.11;100.00
57763;BME280;43592;42.524;12.052;2023-05-10T12:52:19;96208.31;;;14.10;100.00
57763;BME280;43592;42.524;12.052;2023-05-10T12:54:45;96200.72;;;14.23;100.00
57763;BME280;43592;42.524;12.052;2023-05-10T12:57:11;96188.53;;;14.40;100.00
57763;BME280;43592;42.524;12.052;2023-05-10T12:59:36;96186.03;;;14.65;100.00
57763;BME280;43592;42.524;12.052;2023-05-10T13:02:02;96185.00;;;14.84;100.00
57763;BME280;43592;42.524;12.052;2023-05-10T13:04:27;96175.41;;;14.97;100.00
57763;BME280;43592;42.524;12.052;2023-05-10T13:06:53;96177.03;;;15.13;100.00